createdAt,value
2019-05-06T00:00:04.631Z,12.30
2019-05-06T00:02:34.084Z,11.45
2019-05-06T00:05:04.146Z,13.43
2019-05-06T00:07:33.994Z,10.75
2019-05-06T00:10:02.975Z,10.20
2019-05-06T00:12:33.542Z,9.13
2019-05-06T00:15:04.007Z,10.28
2019-05-06T00:17:34.935Z,11.85
2019-05-06T00:20:06.181Z,8.88
2019-05-06T00:22:35.099Z,11.57
2019-05-06T00:25:06.753Z,9.23
2019-05-06T00:27:37.388Z,8.60
2019-05-06T00:30:07.101Z,9.28
2019-05-06T00:32:35.781Z,11.75
2019-05-06T00:35:05.691Z,8.93
2019-05-06T00:37:34.918Z,10.28
2019-05-06T00:40:05.923Z,14.25
2019-05-06T00:42:36.587Z,10.40
2019-05-06T00:45:07.053Z,9.30
2019-05-06T00:47:36.053Z,8.75
2019-05-06T00:50:06.297Z,9.50
2019-05-06T00:52:35.530Z,11.43
2019-05-06T00:55:04.581Z,13.95
2019-05-06T00:57:47.808Z,9.10
2019-05-06T01:00:17.733Z,10.82
2019-05-06T01:02:46.627Z,9.98
2019-05-06T01:05:15.885Z,11.05
2019-05-06T01:07:44.947Z,9.25
2019-05-06T01:10:14.424Z,8.85
2019-05-06T01:12:44.900Z,9.15
2019-05-06T01:15:16.263Z,7.53
2019-05-06T01:17:45.023Z,7.83
2019-05-06T01:20:14.222Z,9.33
2019-05-06T01:22:43.643Z,9.73
2019-05-06T01:25:14.234Z,8.48
2019-05-06T01:27:44.438Z,8.75
2019-05-06T01:30:14.032Z,7.22
2019-05-06T01:32:43.601Z,8.95
2019-05-06T01:35:14.064Z,10.13
2019-05-06T01:37:44.859Z,7.95
2019-05-06T01:40:15.333Z,8.30
2019-05-06T01:42:54.010Z,13.22
2019-05-06T01:45:23.755Z,10.00
2019-05-06T01:47:54.397Z,8.98
2019-05-06T01:50:23.928Z,11.45
2019-05-06T01:52:54.019Z,11.63
2019-05-06T01:55:23.867Z,9.23
2019-05-06T01:57:54.461Z,10.03
2019-05-06T02:00:23.729Z,9.20
2019-05-06T02:02:54.638Z,10.20
2019-05-06T02:05:24.245Z,8.55
2019-05-06T02:07:55.031Z,11.75
2019-05-06T02:10:24.134Z,9.05
2019-05-06T02:12:54.110Z,10.78
2019-05-06T02:15:23.927Z,12.63
2019-05-06T02:17:55.004Z,11.68
2019-05-06T02:20:24.632Z,11.75
2019-05-06T02:22:58.297Z,8.50
2019-05-06T02:25:29.062Z,8.63
2019-05-06T02:27:57.972Z,10.32
2019-05-06T02:30:45.381Z,8.78
2019-05-06T02:33:19.462Z,8.85
2019-05-06T02:35:56.165Z,12.07
2019-05-06T02:38:28.128Z,10.40
2019-05-06T02:40:56.671Z,11.00
2019-05-06T02:43:25.893Z,9.70
2019-05-06T02:45:54.654Z,14.25
2019-05-06T02:48:33.356Z,8.70
2019-05-06T02:51:03.680Z,8.25
2019-05-06T02:53:33.630Z,7.92
2019-05-06T02:56:04.012Z,9.75
2019-05-06T02:58:33.261Z,11.45
2019-05-06T03:01:03.508Z,10.10
2019-05-06T03:03:33.635Z,8.70
2019-05-06T03:06:03.839Z,11.33
2019-05-06T03:08:33.628Z,12.30
2019-05-06T03:11:03.902Z,13.15
2019-05-06T03:13:33.984Z,11.83
2019-05-06T03:16:05.897Z,10.03
2019-05-06T03:18:34.067Z,12.33
2019-05-06T03:21:04.536Z,10.58
2019-05-06T03:23:38.004Z,9.98
2019-05-06T03:26:07.095Z,11.05
2019-05-06T03:28:36.335Z,10.78
2019-05-06T03:31:07.592Z,12.15
2019-05-06T03:33:55.056Z,9.18
2019-05-06T03:36:16.684Z,8.48
2019-05-06T03:38:37.141Z,12.95
2019-05-06T03:41:05.979Z,9.70
2019-05-06T03:43:35.029Z,9.30
2019-05-06T03:46:08.303Z,9.15
2019-05-06T03:48:43.866Z,9.33
2019-05-06T03:51:13.518Z,8.60
2019-05-06T03:53:43.341Z,9.10
2019-05-06T03:56:15.477Z,11.33
2019-05-06T03:58:44.226Z,10.00
2019-05-06T04:01:13.415Z,7.17
2019-05-06T04:03:47.535Z,9.78
2019-05-06T04:06:13.776Z,9.20
2019-05-06T04:08:43.917Z,8.28
2019-05-06T04:11:16.314Z,10.75
2019-05-06T04:13:46.235Z,10.93
2019-05-06T04:16:19.523Z,11.43
2019-05-06T04:18:49.863Z,8.63
2019-05-06T04:21:23.675Z,8.60
2019-05-06T04:23:55.210Z,10.23
2019-05-06T04:26:25.554Z,8.33
2019-05-06T04:28:54.632Z,9.85
2019-05-06T04:31:23.628Z,7.80
2019-05-06T04:34:08.815Z,9.40
2019-05-06T04:36:23.844Z,11.15
2019-05-06T04:38:54.016Z,11.97
2019-05-06T04:41:26.646Z,13.25
2019-05-06T04:43:53.907Z,10.28
2019-05-06T04:46:23.676Z,13.15
2019-05-06T04:48:53.886Z,16.97
2019-05-06T04:51:24.742Z,11.00
2019-05-06T04:53:54.019Z,15.15
2019-05-06T04:56:23.708Z,14.68
2019-05-06T04:58:53.805Z,14.47
2019-05-06T05:01:23.464Z,11.68
2019-05-06T05:03:53.874Z,14.00
2019-05-06T05:06:23.170Z,11.95
2019-05-06T05:08:53.273Z,10.43
2019-05-06T05:11:26.996Z,11.15
2019-05-06T05:14:02.747Z,18.37
2019-05-06T05:16:38.541Z,15.38
2019-05-06T05:19:09.233Z,13.48
2019-05-06T05:21:38.252Z,17.70
2019-05-06T05:24:07.221Z,11.97
2019-05-06T05:26:36.413Z,15.25
2019-05-06T05:29:05.349Z,11.90
2019-05-06T05:31:34.293Z,12.35
2019-05-06T05:34:03.295Z,9.55
2019-05-06T05:36:32.927Z,12.20
2019-05-06T05:39:03.394Z,11.78
2019-05-06T05:41:33.233Z,12.35
2019-05-06T05:44:04.055Z,10.90
2019-05-06T05:46:33.157Z,13.53
2019-05-06T05:49:06.548Z,11.40
2019-05-06T05:51:35.462Z,10.50
2019-05-06T05:54:04.384Z,9.83
2019-05-06T05:56:33.532Z,21.62
2019-05-06T05:59:03.247Z,13.22
2019-05-06T06:01:32.849Z,11.50
2019-05-06T06:04:03.078Z,10.48
2019-05-06T06:06:33.180Z,10.32
2019-05-06T06:09:03.126Z,13.03
2019-05-06T06:11:39.529Z,12.70
2019-05-06T06:14:26.748Z,10.20
2019-05-06T06:17:02.009Z,12.53
2019-05-06T06:19:32.919Z,10.40
2019-05-06T06:22:03.626Z,10.53
2019-05-06T06:24:34.058Z,9.50
2019-05-06T06:27:03.266Z,7.87
2019-05-06T06:29:32.484Z,12.00
2019-05-06T06:32:09.299Z,11.53
2019-05-06T06:34:56.166Z,8.18
2019-05-06T06:37:36.315Z,9.85
2019-05-06T06:40:12.999Z,7.67
2019-05-06T06:42:42.745Z,8.48
2019-05-06T06:45:12.361Z,7.22
2019-05-06T06:47:42.515Z,9.28
2019-05-06T06:50:12.594Z,6.97
2019-05-06T06:52:42.147Z,10.23
2019-05-06T06:55:12.927Z,8.10
2019-05-06T06:57:59.914Z,9.15
2019-05-06T07:00:39.538Z,15.72
2019-05-06T07:03:12.438Z,11.78
2019-05-06T07:05:42.844Z,13.62
2019-05-06T07:08:12.713Z,9.23
2019-05-06T07:10:45.248Z,8.40
2019-05-06T07:13:14.782Z,7.67
2019-05-06T07:15:43.694Z,7.25
2019-05-06T07:18:13.481Z,8.28
2019-05-06T07:20:47.459Z,6.90
2019-05-06T07:23:32.513Z,12.80
2019-05-06T07:26:02.865Z,9.35
2019-05-06T07:28:32.651Z,7.22
2019-05-06T07:31:17.872Z,7.03
2019-05-06T07:33:33.540Z,6.67
2019-05-06T07:36:02.513Z,6.80
2019-05-06T07:38:32.664Z,8.75
2019-05-06T07:41:04.688Z,5.97
2019-05-06T07:43:44.538Z,8.78
2019-05-06T07:46:33.113Z,8.05
2019-05-06T07:49:03.320Z,5.37
2019-05-06T07:51:32.561Z,8.65
2019-05-06T07:54:04.359Z,7.97
2019-05-06T07:56:33.190Z,9.28
2019-05-06T07:59:08.686Z,7.95
2019-05-06T08:01:38.096Z,6.15
2019-05-06T08:04:07.181Z,6.85
2019-05-06T08:06:36.653Z,5.30
2019-05-06T08:09:07.012Z,3.92
2019-05-06T08:11:36.023Z,4.80
2019-05-06T08:14:05.537Z,4.85
2019-05-06T08:16:36.272Z,4.10
2019-05-06T08:19:05.389Z,13.20
2019-05-06T08:21:44.896Z,7.53
2019-05-06T08:24:14.046Z,3.50
2019-05-06T08:26:43.450Z,3.52
2019-05-06T08:29:15.499Z,4.95
2019-05-06T08:31:43.086Z,5.20
2019-05-06T08:34:12.372Z,2.17
2019-05-06T08:36:43.024Z,2.77
2019-05-06T08:39:14.341Z,5.25
2019-05-06T08:41:43.376Z,3.42
2019-05-06T08:44:12.818Z,3.27
2019-05-06T08:46:44.233Z,2.00
2019-05-06T08:49:14.663Z,3.12
2019-05-06T08:51:45.215Z,3.52
2019-05-06T08:54:15.586Z,2.45
2019-05-06T08:56:44.784Z,2.35
2019-05-06T08:59:14.611Z,4.55
2019-05-06T09:01:47.930Z,1.72
2019-05-06T09:04:17.020Z,6.90
2019-05-06T09:06:46.376Z,3.67
2019-05-06T09:09:15.541Z,4.42
2019-05-06T09:11:44.590Z,2.70
2019-05-06T09:14:14.178Z,2.62
2019-05-06T09:16:43.980Z,2.08
2019-05-06T09:19:13.145Z,3.12
2019-05-06T09:21:45.726Z,4.12
2019-05-06T09:24:12.929Z,4.45
2019-05-06T09:26:43.420Z,2.83
2019-05-06T09:29:16.937Z,3.37
2019-05-06T09:31:56.285Z,4.03
2019-05-06T09:34:29.734Z,4.87
2019-05-06T09:37:16.911Z,2.37
2019-05-06T09:39:47.624Z,2.95
2019-05-06T09:42:17.011Z,9.35
2019-05-06T09:44:50.042Z,2.45
2019-05-06T09:47:37.712Z,3.12
2019-05-06T09:50:08.425Z,5.78
2019-05-06T09:52:37.339Z,2.27
2019-05-06T09:55:22.197Z,3.65
2019-05-06T09:58:05.006Z,2.37
2019-05-06T10:00:38.967Z,3.80
2019-05-06T10:03:08.106Z,2.22
2019-05-06T10:05:36.825Z,3.05
2019-05-06T10:08:06.096Z,2.83
2019-05-06T10:10:34.986Z,3.05
2019-05-06T10:13:03.952Z,2.83
2019-05-06T10:15:33.652Z,3.77
2019-05-06T10:18:12.506Z,3.10
2019-05-06T10:20:44.492Z,2.45
2019-05-06T10:23:14.955Z,2.65
2019-05-06T10:25:44.185Z,2.92
2019-05-06T10:28:18.363Z,8.35
2019-05-06T10:30:47.804Z,4.15
2019-05-06T10:33:24.648Z,4.35
2019-05-06T10:35:53.645Z,3.55
2019-05-06T10:38:33.514Z,3.37
2019-05-06T10:41:07.578Z,2.87
2019-05-06T10:43:39.977Z,4.12
2019-05-06T10:46:08.873Z,3.22
2019-05-06T10:48:38.615Z,4.35
2019-05-06T10:51:09.223Z,2.60
2019-05-06T10:53:38.187Z,5.42
2019-05-06T10:56:17.923Z,4.70
2019-05-06T10:58:47.134Z,2.95
2019-05-06T11:01:22.973Z,3.52
2019-05-06T11:03:52.517Z,2.42
2019-05-06T11:06:22.100Z,5.20
2019-05-06T11:08:52.519Z,5.42
2019-05-06T11:11:32.723Z,4.15
2019-05-06T11:13:52.227Z,4.28
2019-05-06T11:16:23.766Z,3.87
2019-05-06T11:18:53.548Z,3.05
2019-05-06T11:21:22.800Z,3.60
2019-05-06T11:23:52.676Z,3.17
2019-05-06T11:26:23.711Z,4.15
2019-05-06T11:29:04.717Z,8.70
2019-05-06T11:31:38.242Z,5.42
2019-05-06T11:34:22.166Z,5.67
2019-05-06T11:36:53.120Z,2.98
2019-05-06T11:39:23.278Z,4.10
2019-05-06T11:42:14.470Z,4.45
2019-05-06T11:44:24.137Z,4.65
2019-05-06T11:46:53.301Z,4.03
2019-05-06T11:49:23.269Z,3.17
2019-05-06T11:51:52.803Z,2.75
2019-05-06T11:54:24.492Z,2.12
2019-05-06T11:56:57.972Z,7.12
2019-05-06T11:59:24.767Z,3.95
2019-05-06T12:01:55.308Z,3.30
2019-05-06T12:04:24.062Z,4.08
2019-05-06T12:07:10.013Z,4.00
2019-05-06T12:09:23.146Z,5.75
2019-05-06T12:11:52.911Z,5.58
2019-05-06T12:14:22.802Z,2.80
2019-05-06T12:16:54.880Z,6.12
2019-05-06T12:19:22.738Z,4.47
2019-05-06T12:21:52.232Z,3.22
2019-05-06T12:24:22.881Z,7.35
2019-05-06T12:26:52.188Z,3.35
2019-05-06T12:29:21.307Z,4.80
2019-05-06T12:31:52.944Z,5.75
2019-05-06T12:34:22.335Z,5.15
2019-05-06T12:36:52.845Z,3.77
2019-05-06T12:39:23.627Z,4.90
2019-05-06T12:42:00.009Z,4.80
2019-05-06T12:44:29.334Z,5.60
2019-05-06T12:47:05.703Z,8.15
2019-05-06T12:49:34.623Z,6.58
2019-05-06T12:52:04.146Z,7.03
2019-05-06T12:54:33.690Z,9.53
2019-05-06T12:57:03.508Z,8.95
2019-05-06T12:59:32.744Z,8.53
2019-05-06T13:02:02.824Z,7.00
2019-05-06T13:04:49.433Z,9.15
2019-05-06T13:07:03.157Z,5.70
2019-05-06T13:09:33.131Z,8.73
2019-05-06T13:12:03.731Z,6.08
2019-05-06T13:14:33.617Z,11.43
2019-05-06T13:17:02.805Z,9.35
2019-05-06T13:19:32.587Z,9.03
2019-05-06T13:22:03.750Z,5.90
2019-05-06T13:24:32.752Z,5.25
2019-05-06T13:27:02.572Z,6.08
2019-05-06T13:29:35.478Z,9.85
2019-05-06T13:32:04.471Z,8.75
2019-05-06T13:34:33.501Z,6.10
2019-05-06T13:37:02.679Z,6.00
2019-05-06T13:39:32.793Z,4.47
2019-05-06T13:42:02.038Z,9.93
2019-05-06T13:44:32.100Z,7.28
2019-05-06T13:47:02.994Z,5.35
2019-05-06T13:49:33.315Z,7.12
2019-05-06T13:52:04.661Z,9.53
2019-05-06T13:54:34.207Z,7.65
2019-05-06T13:57:03.221Z,12.23
2019-05-06T13:59:35.541Z,7.53
2019-05-06T14:02:08.373Z,6.28
2019-05-06T14:04:38.624Z,7.62
2019-05-06T14:07:07.754Z,9.20
2019-05-06T14:09:40.219Z,9.15
2019-05-06T14:12:08.617Z,9.30
2019-05-06T14:14:37.676Z,10.48
2019-05-06T14:17:06.736Z,7.78
2019-05-06T14:19:35.825Z,4.65
2019-05-06T14:22:04.745Z,4.25
2019-05-06T14:24:34.854Z,8.33
2019-05-06T14:27:13.488Z,9.45
2019-05-06T14:29:53.164Z,3.95
2019-05-06T14:32:23.471Z,4.60
2019-05-06T14:34:52.066Z,7.65
2019-05-06T14:37:22.615Z,6.78
2019-05-06T14:39:59.365Z,8.25
2019-05-06T14:42:26.976Z,9.48
2019-05-06T14:44:55.897Z,6.90
2019-05-06T14:47:26.825Z,7.28
2019-05-06T14:49:55.982Z,8.40
2019-05-06T14:52:24.919Z,5.53
2019-05-06T14:54:58.922Z,7.35
2019-05-06T14:57:27.659Z,5.10
2019-05-06T14:59:56.519Z,9.30
2019-05-06T15:02:27.245Z,12.70
2019-05-06T15:04:56.111Z,9.38
2019-05-06T15:07:24.801Z,8.30
2019-05-06T15:10:02.507Z,7.08
2019-05-06T15:12:24.323Z,10.18
2019-05-06T15:14:53.107Z,7.78
2019-05-06T15:17:23.105Z,5.17
2019-05-06T15:19:52.787Z,8.00
2019-05-06T15:22:22.766Z,8.40
2019-05-06T15:24:53.706Z,11.10
2019-05-06T15:27:23.157Z,13.60
2019-05-06T15:29:54.404Z,8.40
2019-05-06T15:32:27.947Z,7.22
2019-05-06T15:35:04.501Z,5.78
2019-05-06T15:37:46.570Z,5.55
2019-05-06T15:40:30.726Z,8.98
2019-05-06T15:42:48.669Z,5.62
2019-05-06T15:45:19.024Z,10.13
2019-05-06T15:47:47.695Z,6.17
2019-05-06T15:50:16.631Z,5.55
2019-05-06T15:52:45.575Z,6.22
2019-05-06T15:55:14.782Z,5.20
2019-05-06T15:57:46.930Z,11.40
2019-05-06T16:00:17.800Z,7.28
2019-05-06T16:02:46.872Z,4.70
2019-05-06T16:05:19.768Z,6.55
2019-05-06T16:07:46.912Z,9.63
2019-05-06T16:10:16.645Z,6.05
2019-05-06T16:12:47.142Z,4.42
2019-05-06T16:15:16.173Z,7.95
2019-05-06T16:17:45.480Z,8.85
2019-05-06T16:20:14.735Z,9.05
2019-05-06T16:22:45.166Z,8.03
2019-05-06T16:25:16.300Z,6.85
2019-05-06T16:27:46.725Z,6.40
2019-05-06T16:30:17.383Z,6.60
2019-05-06T16:32:46.172Z,7.22
2019-05-06T16:35:15.155Z,6.08
2019-05-06T16:37:43.787Z,10.03
2019-05-06T16:40:12.821Z,9.75
2019-05-06T16:42:45.357Z,7.87
2019-05-06T16:45:12.755Z,9.23
2019-05-06T16:47:44.446Z,6.53
2019-05-06T16:50:13.509Z,5.30
2019-05-06T16:52:45.502Z,6.10
2019-05-06T16:55:15.305Z,10.80
2019-05-06T16:57:45.509Z,6.30
2019-05-06T17:00:18.024Z,8.20
2019-05-06T17:02:56.862Z,7.05
2019-05-06T17:05:23.228Z,8.38
2019-05-06T17:07:53.753Z,6.33
2019-05-06T17:10:24.390Z,4.12
2019-05-06T17:12:53.673Z,12.07
2019-05-06T17:15:23.055Z,6.40
2019-05-06T17:17:53.163Z,5.80
2019-05-06T17:20:22.792Z,4.20
2019-05-06T17:22:53.230Z,8.98
2019-05-06T17:25:22.429Z,8.25
2019-05-06T17:27:52.699Z,5.92
2019-05-06T17:30:33.090Z,7.70
2019-05-06T17:33:22.318Z,9.63
2019-05-06T17:35:52.167Z,5.12
2019-05-06T17:38:22.635Z,11.57
2019-05-06T17:40:52.426Z,11.70
2019-05-06T17:43:22.545Z,38.23
2019-05-06T17:46:01.697Z,16.17
2019-05-06T17:48:37.731Z,7.30
2019-05-06T17:51:15.018Z,13.72
2019-05-06T17:53:49.008Z,11.70
2019-05-06T17:56:17.861Z,7.22
2019-05-06T17:58:46.616Z,17.37
2019-05-06T18:01:17.005Z,13.62
2019-05-06T18:03:45.878Z,9.85
2019-05-06T18:06:14.666Z,12.43
2019-05-06T18:08:44.500Z,8.35
2019-05-06T18:11:14.031Z,12.15
2019-05-06T18:13:43.330Z,15.60
2019-05-06T18:16:13.281Z,17.82
2019-05-06T18:18:42.382Z,22.10
2019-05-06T18:21:12.293Z,19.25
2019-05-06T18:23:41.625Z,29.65
2019-05-06T18:26:10.444Z,18.82
2019-05-06T18:28:39.364Z,16.10
2019-05-06T18:31:08.270Z,32.45
2019-05-06T18:33:37.540Z,23.80
2019-05-06T18:36:06.669Z,46.55
2019-05-06T18:38:35.554Z,11.20
2019-05-06T18:41:04.883Z,15.65
2019-05-06T18:43:33.906Z,37.53
2019-05-06T18:46:03.312Z,8.70
2019-05-06T18:48:35.198Z,10.48
2019-05-06T18:51:04.836Z,6.20
2019-05-06T18:53:33.865Z,8.23
2019-05-06T18:56:03.350Z,8.98
2019-05-06T18:58:32.922Z,7.85
2019-05-06T19:01:03.959Z,8.68
2019-05-06T19:03:36.728Z,7.55
2019-05-06T19:06:05.740Z,7.75
2019-05-06T19:08:48.703Z,9.23
2019-05-06T19:11:18.374Z,7.97
2019-05-06T19:13:47.513Z,7.67
2019-05-06T19:16:16.446Z,8.03
2019-05-06T19:18:45.503Z,9.28
2019-05-06T19:21:14.670Z,7.53
2019-05-06T19:23:43.636Z,10.23
2019-05-06T19:26:12.683Z,10.25
2019-05-06T19:28:43.039Z,8.80
2019-05-06T19:31:12.461Z,9.63
2019-05-06T19:33:43.049Z,12.10
2019-05-06T19:36:12.628Z,7.78
2019-05-06T19:38:42.321Z,10.20
2019-05-06T19:41:12.870Z,7.45
2019-05-06T19:43:41.876Z,10.08
2019-05-06T19:46:12.078Z,12.60
2019-05-06T19:48:43.131Z,8.83
2019-05-06T19:51:11.725Z,8.28
2019-05-06T19:53:42.883Z,7.20
2019-05-06T19:56:12.344Z,9.55
2019-05-06T19:58:42.858Z,7.55
2019-05-06T20:01:12.429Z,6.45
2019-05-06T20:03:41.659Z,13.48
2019-05-06T20:06:32.380Z,8.23
2019-05-06T20:09:03.016Z,5.70
2019-05-06T20:11:33.513Z,10.00
2019-05-06T20:14:03.299Z,8.33
2019-05-06T20:16:33.357Z,6.47
2019-05-06T20:19:03.145Z,11.60
2019-05-06T20:21:32.826Z,9.68
2019-05-06T20:24:02.347Z,8.35
2019-05-06T20:26:32.443Z,12.10
2019-05-06T20:29:02.295Z,9.30
2019-05-06T20:31:32.175Z,7.97
2019-05-06T20:34:02.219Z,6.28
2019-05-06T20:36:33.172Z,8.58
2019-05-06T20:39:02.554Z,9.00
2019-05-06T20:41:32.950Z,8.58
2019-05-06T20:44:02.982Z,10.28
2019-05-06T20:46:32.306Z,11.85
2019-05-06T20:49:02.438Z,10.82
2019-05-06T20:51:32.794Z,10.95
2019-05-06T20:54:02.150Z,14.55
2019-05-06T20:56:32.759Z,8.35
2019-05-06T20:59:02.480Z,11.83
2019-05-06T21:01:32.647Z,11.25
2019-05-06T21:04:02.247Z,11.57
2019-05-06T21:06:32.228Z,12.47
2019-05-06T21:09:02.099Z,13.32
2019-05-06T21:11:32.538Z,10.53
2019-05-06T21:14:02.364Z,15.45
2019-05-06T21:16:32.011Z,14.28
2019-05-06T21:19:03.826Z,14.60
2019-05-06T21:21:32.694Z,14.85
2019-05-06T21:24:02.033Z,17.05
2019-05-06T21:26:33.009Z,16.65
2019-05-06T21:29:03.232Z,19.25
2019-05-06T21:31:32.689Z,14.55
2019-05-06T21:34:02.598Z,15.65
2019-05-06T21:36:31.764Z,15.48
2019-05-06T21:39:01.989Z,14.83
2019-05-06T21:41:32.727Z,21.27
2019-05-06T21:44:02.427Z,17.95
2019-05-06T21:46:31.907Z,17.15
2019-05-06T21:49:00.740Z,14.75
2019-05-06T21:51:29.702Z,15.30
2019-05-06T21:54:02.935Z,22.32
2019-05-06T21:56:32.040Z,18.90
2019-05-06T21:59:02.032Z,15.23
2019-05-06T22:01:33.042Z,13.95
2019-05-06T22:04:03.193Z,17.67
2019-05-06T22:06:33.238Z,13.95
2019-05-06T22:09:02.768Z,15.95
2019-05-06T22:11:32.316Z,18.27
2019-05-06T22:14:01.970Z,13.30
2019-05-06T22:16:32.351Z,14.73
2019-05-06T22:19:02.599Z,12.13
2019-05-06T22:21:32.228Z,18.40
2019-05-06T22:24:04.587Z,17.15
2019-05-06T22:26:33.287Z,15.63
2019-05-06T22:29:02.349Z,16.62
2019-05-06T22:31:33.066Z,15.85
2019-05-06T22:34:01.580Z,13.30
2019-05-06T22:36:32.283Z,15.43
2019-05-06T22:39:02.463Z,14.50
2019-05-06T22:41:32.594Z,12.98
2019-05-06T22:44:12.467Z,12.93
2019-05-06T22:46:32.924Z,13.45
2019-05-06T22:49:02.570Z,11.65
2019-05-06T22:51:32.346Z,11.95
2019-05-06T22:54:02.683Z,14.00
2019-05-06T22:56:32.479Z,10.23
2019-05-06T22:59:03.296Z,11.10
2019-05-06T23:01:34.712Z,10.38
2019-05-06T23:04:03.949Z,13.72
2019-05-06T23:06:33.098Z,8.50
2019-05-06T23:09:04.851Z,11.15
2019-05-06T23:11:36.122Z,10.13
2019-05-06T23:14:05.298Z,9.18
2019-05-06T23:16:34.934Z,11.03
2019-05-06T23:19:04.181Z,10.85
2019-05-06T23:21:33.745Z,10.82
2019-05-06T23:24:02.579Z,10.98
2019-05-06T23:26:31.662Z,10.53
2019-05-06T23:29:02.442Z,13.10
2019-05-06T23:31:33.132Z,11.55
2019-05-06T23:34:02.331Z,12.55
2019-05-06T23:36:52.697Z,11.18
2019-05-06T23:39:42.855Z,11.65
2019-05-06T23:42:29.207Z,13.15
2019-05-06T23:45:16.634Z,13.65
2019-05-06T23:48:03.470Z,12.25
2019-05-06T23:50:50.165Z,14.28
2019-05-06T23:53:37.440Z,12.63
2019-05-06T23:56:24.175Z,11.97
2019-05-06T23:58:53.029Z,12.85
